Latest Weather Observations for Maria Island

IDT60801

Issued at 3:32 pm EST Monday 29 August 2016 (issued every 30 minutes, with the page automatically refreshed every 10 minutes)

About weather observations | Map of weather stations | Latest weather observations for TAS | Other Formats
Station Details ID: 092124 Name: MARIA ISLAND (POINT LESUEUR) Lat: -42.66 Lon: 148.02 Height: 28.0 m
Data from the previous 72 hours. | See also: Recent months at Maria Island
Date/Time
EST
Temp
°C
App
Temp
°C
Dew
Point
°C
Rel
Hum
%
Delta-T
°C
Wind Press
QNH
hPa
Press
MSL
hPa
Rain since
9am
mm
Dir  Spd
km/h
Gust
km/h
Spd
kts
Gust
kts
29/03:30pm 10.2 - - - - ESE 17 19 9 10 1023.2 1023.3 0.0
29/03:00pm 10.4 - - - - ESE 17 19 9 10 1023.1 1023.2 0.0
29/02:30pm 10.3 - - - - ESE 17 20 9 11 1023.0 1023.1 0.0
29/02:00pm 10.2 - - - - ESE 17 20 9 11 1022.9 1023.0 0.0
29/01:30pm 10.2 - - - - ESE 19 20 10 11 1023.0 1023.1 0.0
29/01:00pm 10.4 - - - - ESE 15 19 8 10 1023.1 1023.2 0.0
29/12:30pm 10.3 - - - - ESE 17 20 9 11 1023.3 1023.4 0.0
29/12:00pm 10.3 - - - - SSE 7 9 4 5 1023.7 1023.8 0.0
29/11:30am 10.0 - - - - S 6 7 3 4 1024.0 1024.1 0.0
29/11:00am 9.6 - - - - S 4 6 2 3 1024.0 1024.1 0.0
29/10:30am 9.2 - - - - W 4 6 2 3 1024.1 1024.2 0.0
29/10:00am 9.0 - - - - N 4 6 2 3 1024.5 1024.6 0.0
29/09:30am 8.0 - - - - N 6 7 3 4 1024.4 1024.5 0.0
29/09:00am 8.3 - - - - NNW 7 9 4 5 1024.4 1024.5 0.0
29/08:30am 6.9 - - - - WNW 11 13 6 7 1024.1 1024.2 0.0
29/08:00am 6.9 - - - - WNW 9 11 5 6 1023.9 1024.0 0.0
29/07:30am 6.2 - - - - WNW 11 13 6 7 1023.7 1023.8 0.0
29/07:00am 5.6 - - - - WNW 13 17 7 9 1023.4 1023.5 0.0
29/06:30am 5.5 - - - - WNW 20 24 11 13 1022.9 1023.0 0.0
29/06:00am 5.5 - - - - WNW 15 17 8 9 1022.8 1022.9 0.0
29/05:30am 6.0 - - - - W 9 11 5 6 1022.4 1022.5 0.0
29/05:00am 5.8 - - - - WNW 11 11 6 6 1022.3 1022.4 0.0
29/04:30am 6.2 - - - - WNW 9 15 5 8 1022.2 1022.3 0.0
29/04:00am 6.4 - - - - WNW 7 11 4 6 1021.9 1021.9 0.0
29/03:30am 5.9 - - - - WNW 11 15 6 8 1021.8 1021.8 0.0
29/03:00am 5.9 - - - - WNW 13 15 7 8 1021.7 1021.7 0.0
29/02:30am 6.5 - - - - W 6 7 3 4 1021.5 1021.5 0.0
29/02:00am 5.7 - - - - NW 9 13 5 7 1021.3 1021.3 0.0
29/01:30am 6.1 - - - - WNW 19 24 10 13 1021.3 1021.3 0.0
29/01:00am 6.0 - - - - WNW 15 17 8 9 1021.1 1021.1 0.0
29/12:30am 5.8 - - - - WNW 15 19 8 10 1020.8 1020.8 0.0
29/12:00am 5.9 - - - - WNW 9 15 5 8 1020.8 1020.8 0.0
 
Date/Time
EST
Temp
°C
App
Temp
°C
Dew
Point
°C
Rel
Hum
%
Delta-T
°C
Wind Press
QNH
hPa
Press
MSL
hPa
Rain since
9am
mm
Dir  Spd
km/h
Gust
km/h
Spd
kts
Gust
kts
28/11:30pm 6.8 - - - - WNW 9 13 5 7 1020.6 1020.6 0.0
28/11:00pm 7.0 - - - - NW 11 15 6 8 1020.6 1020.6 0.0
28/10:30pm 7.3 - - - - WSW 7 15 4 8 1020.5 1020.5 0.0
28/10:00pm 7.8 - - - - W 15 22 8 12 1020.2 1020.2 0.0
28/09:30pm 7.5 - - - - W 15 20 8 11 1020.0 1020.0 0.0
28/09:00pm 7.6 - - - - W 7 11 4 6 1019.7 1019.7 0.0
28/08:30pm 7.6 - - - - W 9 11 5 6 1019.4 1019.4 0.0
28/08:00pm 8.1 - - - - W 9 11 5 6 1019.0 1019.0 0.0
28/07:30pm 8.7 - - - - W 11 13 6 7 1018.7 1018.7 0.0
28/07:00pm 8.6 - - - - W 9 13 5 7 1018.6 1018.6 0.0
28/06:30pm 9.1 - - - - WSW 13 15 7 8 1018.1 1018.1 0.0
28/06:00pm 9.4 - - - - WSW 11 17 6 9 1017.7 1017.7 0.0
28/05:30pm 9.9 - - - - WSW 19 26 10 14 1017.1 1017.1 0.0
28/05:00pm 10.5 - - - - W 20 26 11 14 1016.7 1016.7 0.0
28/04:30pm 11.0 - - - - WSW 11 17 6 9 1016.5 1016.5 0.0
28/04:00pm 11.2 - - - - WSW 17 20 9 11 1016.4 1016.4 0.0
28/03:30pm 10.8 - - - - SW 15 20 8 11 1016.2 1016.2 0.0
28/03:00pm 11.4 - - - - SW 17 24 9 13 1016.0 1016.0 0.0
28/02:30pm 10.9 - - - - W 15 22 8 12 1015.9 1015.9 0.0
28/02:00pm 11.4 - - - - SW 13 22 7 12 1016.0 1016.0 0.0
28/01:30pm 10.7 - - - - WSW 17 26 9 14 1016.0 1016.0 0.0
28/01:00pm 10.3 - - - - SW 20 28 11 15 1016.2 1016.2 0.0
28/12:30pm 10.0 - - - - W 20 30 11 16 1016.2 1016.2 0.0
28/12:00pm 9.8 - - - - SW 19 32 10 17 1016.2 1016.2 0.0
28/11:30am 9.6 - - - - SW 24 32 13 17 1016.5 1016.5 0.0
28/11:00am 9.3 - - - - WSW 20 30 11 16 1016.4 1016.4 0.0
28/10:30am 9.1 - - - - WSW 24 32 13 17 1016.2 1016.2 0.0
28/10:00am 9.0 - - - - SW 26 35 14 19 1016.0 1016.0 0.0
28/09:30am 8.2 - - - - WSW 22 30 12 16 1015.5 1015.5 0.0
28/09:00am 8.1 - - - - SW 30 37 16 20 1015.3 1015.3 0.4
28/08:30am 7.5 - - - - SW 33 43 18 23 1014.9 1014.9 0.4
28/08:00am 7.3 - - - - SW 30 41 16 22 1014.6 1014.6 0.4
28/07:30am 7.1 - - - - WSW 20 28 11 15 1014.2 1014.2 0.4
28/07:00am 7.0 - - - - SW 26 33 14 18 1013.5 1013.5 0.4
28/06:30am 7.1 - - - - SW 26 32 14 17 1012.8 1012.8 0.4
28/06:00am 7.0 - - - - SW 33 41 18 22 1012.1 1012.1 0.4
28/05:30am 6.8 - - - - SW 33 43 18 23 1011.2 1011.2 0.4
28/05:00am 7.3 - - - - SW 46 54 25 29 1010.5 1010.5 0.4
28/04:30am 7.6 - - - - SW 52 63 28 34 1009.7 1009.7 0.4
28/04:00am 7.0 - - - - SW 48 61 26 33 1009.2 1009.2 0.4
28/03:30am 7.0 - - - - SSW 44 52 24 28 1008.7 1008.7 0.2
28/03:00am 7.5 - - - - SW 50 61 27 33 1008.0 1008.0 0.0
28/02:30am 8.1 - - - - SW 50 61 27 33 1007.4 1007.4 0.0
28/02:05am 9.3 - - - - WSW 33 57 18 31 1006.9 1006.9 0.0
28/02:00am 10.1 - - - - WSW 28 39 15 21 1006.7 1006.7 0.0
28/01:30am 10.4 - - - - W 33 46 18 25 1006.0 1006.0 0.0
28/01:00am 10.7 - - - - WNW 26 32 14 17 1005.6 1005.6 0.0
28/12:59am 10.7 - - - - WNW 26 32 14 17 1005.5 1005.5 0.0
28/12:30am 11.0 - - - - NW 37 50 20 27 1005.0 1005.0 0.0
28/12:00am 11.2 - - - - NNW 26 33 14 18 1004.6 1004.6 0.0
 
Date/Time
EST
Temp
°C
App
Temp
°C
Dew
Point
°C
Rel
Hum
%
Delta-T
°C
Wind Press
QNH
hPa
Press
MSL
hPa
Rain since
9am
mm
Dir  Spd
km/h
Gust
km/h
Spd
kts
Gust
kts
27/11:30pm 11.1 - - - - N 30 35 16 19 1004.2 1004.2 0.0
27/11:00pm 11.3 - - - - N 37 44 20 24 1004.5 1004.5 0.0
27/10:30pm 11.1 - - - - N 33 37 18 20 1004.9 1004.9 0.0
27/10:00pm 11.1 - - - - N 33 39 18 21 1005.5 1005.5 0.0
27/09:30pm 11.1 - - - - N 41 48 22 26 1005.6 1005.6 0.0
27/09:00pm 11.2 - - - - N 41 44 22 24 1005.6 1005.6 0.0
27/08:30pm 11.6 - - - - N 37 43 20 23 1006.4 1006.4 0.0
27/08:00pm 12.3 - - - - NNW 35 50 19 27 1006.8 1006.8 0.0
27/07:36pm 12.7 - - - - NNW 30 54 16 29 1007.1 1007.1 0.0
27/07:30pm 12.6 - - - - NW 30 37 16 20 1007.3 1007.3 0.0
27/07:00pm 12.7 - - - - NW 33 44 18 24 1007.6 1007.6 0.0
27/06:30pm 13.1 - - - - NW 30 43 16 23 1007.6 1007.6 0.0
27/06:00pm 13.1 - - - - NNW 24 32 13 17 1007.4 1007.4 0.0
27/05:39pm 13.6 - - - - WNW 28 43 15 23 1007.1 1007.1 0.0
27/05:30pm 12.9 - - - - NW 17 22 9 12 1007.5 1007.5 0.0
27/05:00pm 13.2 - - - - NW 22 33 12 18 1007.4 1007.4 0.0
27/04:30pm 13.0 - - - - NW 20 28 11 15 1007.4 1007.4 0.0
27/04:00pm 13.2 - - - - N 26 30 14 16 1007.0 1007.0 0.0
27/03:30pm 13.3 - - - - N 33 39 18 21 1006.9 1006.9 0.0
27/03:00pm 13.3 - - - - NNW 28 33 15 18 1007.4 1007.4 0.0
27/02:30pm 13.5 - - - - NNW 28 32 15 17 1007.5 1007.5 0.0
27/02:00pm 13.0 - - - - NNW 28 33 15 18 1007.9 1007.9 0.0
27/01:30pm 12.7 - - - - NNW 32 37 17 20 1007.9 1007.9 0.0
27/01:00pm 12.7 - - - - NNW 32 37 17 20 1008.5 1008.5 0.0
27/12:30pm 12.5 - - - - NNW 28 32 15 17 1009.0 1009.0 0.0
27/12:00pm 12.5 - - - - NNW 32 37 17 20 1009.3 1009.3 0.0
27/11:30am 12.8 - - - - N 24 30 13 16 1009.9 1009.9 0.0
27/11:00am 12.7 - - - - NNW 35 43 19 23 1010.1 1010.1 0.0
27/10:30am 12.3 - - - - NNW 32 35 17 19 1010.4 1010.4 0.0
27/10:00am 12.1 - - - - NNW 39 44 21 24 1010.6 1010.6 0.0
27/09:30am 12.7 - - - - NW 24 37 13 20 1011.0 1011.0 0.0
27/09:00am 10.5 - - - - N 28 33 15 18 1011.1 1011.1 0.0
27/08:30am 10.1 - - - - NNE 30 39 16 21 1011.2 1011.2 0.0
27/08:00am 9.7 - - - - N 20 28 11 15 1011.5 1011.5 0.0
27/07:30am 9.0 - - - - N 28 33 15 18 1011.7 1011.7 0.0
27/07:00am 8.9 - - - - N 26 37 14 20 1011.3 1011.3 0.0
27/06:30am 9.1 - - - - N 30 35 16 19 1011.3 1011.3 0.0
27/06:00am 9.1 - - - - NNW 22 28 12 15 1011.3 1011.3 0.0
27/05:30am 9.3 - - - - NNW 35 43 19 23 1011.1 1011.1 0.0
27/05:00am 9.2 - - - - N 28 35 15 19 1011.3 1011.3 0.0
27/04:30am 9.3 - - - - NNW 22 32 12 17 1011.3 1011.3 0.0
27/04:00am 9.1 - - - - W 6 11 3 6 1012.0 1012.0 0.0
27/03:30am 8.9 - - - - W 17 24 9 13 1012.5 1012.5 0.0
27/03:15am 9.4 - - - - NW 26 37 14 20 1012.4 1012.4 0.0
27/03:00am 10.1 - - - - NW 37 46 20 25 1011.8 1011.8 0.0
27/02:30am 9.7 - - - - NW 35 43 19 23 1011.3 1011.3 0.0
27/02:00am 9.9 - - - - NNW 39 46 21 25 1011.3 1011.3 0.0
27/01:30am 10.1 - - - - NNW 33 41 18 22 1011.9 1011.9 0.0
27/01:00am 10.3 - - - - NNW 35 41 19 22 1011.7 1011.7 0.0
27/12:30am 10.6 - - - - N 32 37 17 20 1012.0 1012.0 0.0
27/12:00am 11.1 - - - - NNW 19 28 10 15 1012.5 1012.5 0.0
 
Date/Time
EST
Temp
°C
App
Temp
°C
Dew
Point
°C
Rel
Hum
%
Delta-T
°C
Wind Press
QNH
hPa
Press
MSL
hPa
Rain since
9am
mm
Dir  Spd
km/h
Gust
km/h
Spd
kts
Gust
kts
26/11:30pm 11.1 - - - - NW 17 30 9 16 1012.7 1012.7 0.0
26/11:00pm 11.5 - - - - WNW 13 22 7 12 1012.9 1012.9 0.0
26/10:30pm 11.7 - - - - NW 13 26 7 14 1012.8 1012.8 0.0
26/10:00pm 11.7 - - - - NW 15 32 8 17 1012.7 1012.7 0.0
26/09:30pm 11.8 - - - - N 17 26 9 14 1012.7 1012.7 0.0
26/09:00pm 11.8 - - - - NW 13 20 7 11 1012.8 1012.8 0.0
26/08:30pm 11.7 - - - - NNW 13 19 7 10 1012.6 1012.6 0.0
26/08:00pm 11.8 - - - - NNW 17 22 9 12 1012.6 1012.6 0.0
26/07:30pm 11.8 - - - - NNW 15 17 8 9 1012.6 1012.6 0.0
26/07:00pm 12.1 - - - - NW 19 24 10 13 1012.5 1012.5 0.0
26/06:30pm 12.1 - - - - WNW 17 22 9 12 1012.5 1012.5 0.0
26/06:00pm 12.2 - - - - WNW 22 30 12 16 1012.2 1012.2 0.0
26/05:30pm 13.0 - - - - W 20 30 11 16 1012.0 1012.0 0.0
26/05:00pm 13.7 - - - - W 20 30 11 16 1011.7 1011.7 0.0
26/04:30pm 13.9 - - - - W 24 32 13 17 1011.3 1011.3 0.0
26/04:00pm 14.3 - - - - W 30 37 16 20 1011.1 1011.1 0.0

Other Formats:

Comma delimited format used in spreadsheet applications
http://www.bom.gov.au/fwo/IDT60801/IDT60801.95988.axf

JavaScript Object Notation format (JSON) in row-major order
http://www.bom.gov.au/fwo/IDT60801/IDT60801.95988.json